Cloverdale, OR (97112)

9:47 PM PDT on May 22, 2015 (GMT -0700)
APRSWXNET | | Change Station
CLOSE
Current Station
Personal Weather Station
Location: Pacific City, OR
Elevation: 27 ft
Nearby Weather Stations

Elev 27 ft 45.20 °N, 123.97 °W | Updated 55 minutes ago

Overcast
Overcast
55 °F
Feels Like 55 °F
N
0
Wind Variable Wind from North
Gusts 0.0 mph

Today
High -- | Low -- °F
--% Chance of Precip.
Yesterday
High -- | Low -- °F
Precip. -- in
5:38 AM 8:46 PM
Waxing Crescent, 26% visible
Pressure 30.13 in
Visibility 7.0 miles
Clouds Mostly Cloudy 1700 ft
Mostly Cloudy 2400 ft
Overcast 3200 ft
Dew Point 54 °F
Humidity 97%
Rainfall in
Snow Depth Not available.
UV 0 out of 12
Pollen 6.00 out of 12
Air Quality Not available.
Flu Activity No Activity
METAR KTMK 230435Z AUTO 23003KT 7SM BKN017 BKN024 OVC032 12/11 A3013 RMK AO2

More Conditions Fewer Conditions

Pressure 30.13 in
Visibility 7.0 miles
Clouds Mostly Cloudy 1700 ft
Mostly Cloudy 2400 ft
Overcast 3200 ft
Dew Point 54 °F
Humidity 97%
Rainfall in
Snow Depth Not available.
UV 0 out of 12
Pollen 6.00 out of 12
Air Quality Not available.
Flu Activity No Activity
METAR KTMK 230435Z AUTO 23003KT 7SM BKN017 BKN024 OVC032 12/11 A3013 RMK AO2

More Conditions Fewer Conditions

10-Day Weather Forecast

Almanac

Astronomy

May. 22, 2015 Rise Set
Actual Time
Civil Twilight
Nautical Twilight
Astronomical Twilight
Moon
Length of Visible Light
Length of Day
Tomorrow will be .
, % of the Moon is Illuminated

Today's Extremes

State Highs State Lows

Community

WunderPhotos

Upload Photos

1,823,387 photos uploaded!

WunderBlogs® & News

Nearby

Air Quality

  Air Quality AQ Index Pollutant
Not available.

Snow Depth

Station Depth Elevation

Earthquake Activity

City Distance Mag. Time & Date
Minimum magnitude displayed is 2.5.

Coastal Water Temperatures

Place Temperature

Stations

Nearby Weather Stations

Station Location Temp. Windchill Dew Point Humidity Wind Precip. Elev Updated Type